Kintore, United Kingdom
Current Conditions -  °F | °C
As of 3:50 PM on Tuesday 21 Oct 2014 (Local Time) from EGPD Reporting Station
Scattered Clouds Scattered Clouds  
Wind Chill: 37°   Ceiling: Unl
Heat Index: 46°   Visibility: 6mi
Dew Point: 36°   Wind: 33mph
Humidity: 66%   Direction: 310°NW
Pressure: 29.41"   Gusts: 53mph
Location:  57.24°N, 2.35°W
Report Text: EGPD 211450Z 31029G46KT 9999 SCT034 SCT045 08/02 Q0996 TEMPO RA
Loading
Personal Weather Stations






























Interactive Weather Map
Tropical Storm Tracking
New forecast layout! Learn more

10-Day Weather Forecast

Advertisements
Track Severe Weather on mobile